Ash Grove, MO (65604)

6:52 PM CDT on July 30, 2016 (GMT -0500)
West of Ash Grove | | Change Station

Elev 1027 ft 37.34 °N, 93.60 °W | Updated 13 seconds ago

Clear
Clear
82.8 °F
Feels Like 87 °F
N
2.0
Wind Variable Wind from ESE
Gusts 4.0 mph

Today
High -- | Low -- °F
--% Chance of Precip.
Yesterday
High -- | Low -- °F
Precip. -- in
Pressure 29.92 in
Visibility 10.0 miles
Clouds Clear
Heat Index 87 °F
Dew Point 71 °F
Humidity 68%
Rainfall 0.00 in
Snow Depth Not available.
6:17 AM 8:23 PM
Waning Crescent, 10% visible
METAR KSGF 302252Z 05008KT 10SM CLR 28/21 A2996 RMK AO2 SLP132 T02830206
Pressure 29.92 in
Visibility 10.0 miles
Clouds Clear
Heat Index 87 °F
Dew Point 71 °F
Humidity 68%
Rainfall 0.00 in
Snow Depth Not available.
6:17 AM 8:23 PM
Waning Crescent, 10% visible
METAR KSGF 302252Z 05008KT 10SM CLR 28/21 A2996 RMK AO2 SLP132 T02830206

10-Day Weather Forecast

Almanac

Astronomy

Jul. 30, 2016 Rise Set
Actual Time
Civil Twilight
Nautical Twilight
Astronomical Twilight
Moon
Length of Visible Light
Length of Day
Tomorrow will be .
, % of the Moon is Illuminated

Today's Extremes

State Highs State Lows

Community

WunderPhotos

Upload Photos

1,928,680 photos uploaded!

WunderBlog® & News

Nearby

Air Quality

  Air Quality AQ Index Pollutant
Not available.

Snow Depth

Station Depth Elevation

Earthquake Activity

City Distance Mag. Time & Date
Minimum magnitude displayed is 2.5.

Coastal Water Temperatures

Place Temperature

Stations

Nearby Weather Stations

Station Location Temp. Windchill Dew Point Humidity Wind Precip. Elev Updated Type
                   

Watches & Warnings

There are currently no watches in effect.